sensor_id;sensor_type;location;lat;lon;timestamp;P1;durP1;ratioP1;P2;durP2;ratioP2
27225;SDS011;14732;51.074;3.788;2023-01-29T00:01:12;48.35;;;27.38;;
27225;SDS011;14732;51.074;3.788;2023-01-29T00:03:38;51.13;;;26.30;;
27225;SDS011;14732;51.074;3.788;2023-01-29T00:06:05;46.60;;;26.23;;
27225;SDS011;14732;51.074;3.788;2023-01-29T00:08:32;51.60;;;26.52;;
27225;SDS011;14732;51.074;3.788;2023-01-29T00:10:59;51.10;;;27.13;;
27225;SDS011;14732;51.074;3.788;2023-01-29T00:13:29;55.17;;;29.45;;
27225;SDS011;14732;51.074;3.788;2023-01-29T00:15:56;56.40;;;29.10;;
27225;SDS011;14732;51.074;3.788;2023-01-29T00:18:22;53.30;;;28.13;;
27225;SDS011;14732;51.074;3.788;2023-01-29T00:20:48;53.63;;;28.45;;
27225;SDS011;14732;51.074;3.788;2023-01-29T00:23:14;52.83;;;27.25;;
27225;SDS011;14732;51.074;3.788;2023-01-29T00:25:41;53.00;;;27.65;;
27225;SDS011;14732;51.074;3.788;2023-01-29T00:28:07;48.05;;;26.90;;
27225;SDS011;14732;51.074;3.788;2023-01-29T00:30:34;53.03;;;27.88;;
27225;SDS011;14732;51.074;3.788;2023-01-29T00:33:01;46.83;;;26.58;;
27225;SDS011;14732;51.074;3.788;2023-01-29T00:35:27;53.55;;;27.90;;
27225;SDS011;14732;51.074;3.788;2023-01-29T00:37:53;51.45;;;27.98;;
27225;SDS011;14732;51.074;3.788;2023-01-29T00:40:19;54.63;;;28.08;;
27225;SDS011;14732;51.074;3.788;2023-01-29T00:42:46;51.42;;;27.63;;
27225;SDS011;14732;51.074;3.788;2023-01-29T00:45:31;52.47;;;27.90;;
27225;SDS011;14732;51.074;3.788;2023-01-29T00:47:57;50.15;;;27.90;;
27225;SDS011;14732;51.074;3.788;2023-01-29T00:50:22;48.63;;;27.10;;
27225;SDS011;14732;51.074;3.788;2023-01-29T00:52:48;49.53;;;26.98;;
27225;SDS011;14732;51.074;3.788;2023-01-29T00:55:16;53.33;;;28.23;;
27225;SDS011;14732;51.074;3.788;2023-01-29T00:57:41;55.70;;;28.92;;
27225;SDS011;14732;51.074;3.788;2023-01-29T01:00:08;54.50;;;27.70;;
27225;SDS011;14732;51.074;3.788;2023-01-29T01:05:21;53.15;;;25.63;;
27225;SDS011;14732;51.074;3.788;2023-01-29T01:07:48;54.50;;;27.67;;
27225;SDS011;14732;51.074;3.788;2023-01-29T01:10:17;39.38;;;21.40;;
27225;SDS011;14732;51.074;3.788;2023-01-29T01:12:56;52.42;;;26.95;;
27225;SDS011;14732;51.074;3.788;2023-01-29T01:15:24;52.42;;;27.60;;
27225;SDS011;14732;51.074;3.788;2023-01-29T01:17:57;51.53;;;27.65;;
27225;SDS011;14732;51.074;3.788;2023-01-29T01:20:24;53.85;;;27.80;;
27225;SDS011;14732;51.074;3.788;2023-01-29T01:22:52;50.65;;;26.10;;
27225;SDS011;14732;51.074;3.788;2023-01-29T01:25:18;50.72;;;27.70;;
27225;SDS011;14732;51.074;3.788;2023-01-29T01:27:44;56.67;;;26.45;;
27225;SDS011;14732;51.074;3.788;2023-01-29T01:30:11;54.47;;;27.20;;
27225;SDS011;14732;51.074;3.788;2023-01-29T01:32:39;46.95;;;26.17;;
27225;SDS011;14732;51.074;3.788;2023-01-29T01:35:05;51.15;;;27.42;;
27225;SDS011;14732;51.074;3.788;2023-01-29T01:37:32;58.60;;;28.95;;
27225;SDS011;14732;51.074;3.788;2023-01-29T01:40:01;57.45;;;28.25;;
27225;SDS011;14732;51.074;3.788;2023-01-29T01:42:37;51.72;;;27.42;;
27225;SDS011;14732;51.074;3.788;2023-01-29T01:45:04;49.88;;;26.95;;
27225;SDS011;14732;51.074;3.788;2023-01-29T01:48:01;51.65;;;25.70;;
27225;SDS011;14732;51.074;3.788;2023-01-29T01:51:02;48.80;;;26.10;;
27225;SDS011;14732;51.074;3.788;2023-01-29T01:53:34;51.65;;;27.15;;
27225;SDS011;14732;51.074;3.788;2023-01-29T01:56:05;50.42;;;26.90;;
27225;SDS011;14732;51.074;3.788;2023-01-29T01:58:36;49.45;;;26.30;;
27225;SDS011;14732;51.074;3.788;2023-01-29T02:01:05;46.15;;;26.00;;
27225;SDS011;14732;51.074;3.788;2023-01-29T02:03:37;50.88;;;25.98;;
27225;SDS011;14732;51.074;3.788;2023-01-29T02:06:32;53.40;;;25.88;;
27225;SDS011;14732;51.074;3.788;2023-01-29T02:09:19;49.92;;;26.50;;
27225;SDS011;14732;51.074;3.788;2023-01-29T02:12:04;47.50;;;25.95;;
27225;SDS011;14732;51.074;3.788;2023-01-29T02:14:32;46.73;;;25.57;;
27225;SDS011;14732;51.074;3.788;2023-01-29T02:17:02;51.70;;;26.35;;
27225;SDS011;14732;51.074;3.788;2023-01-29T02:22:05;48.65;;;26.20;;
27225;SDS011;14732;51.074;3.788;2023-01-29T02:27:16;49.60;;;25.75;;
27225;SDS011;14732;51.074;3.788;2023-01-29T02:29:48;50.95;;;25.77;;
27225;SDS011;14732;51.074;3.788;2023-01-29T02:32:40;48.47;;;24.83;;
27225;SDS011;14732;51.074;3.788;2023-01-29T02:35:24;50.25;;;26.42;;
27225;SDS011;14732;51.074;3.788;2023-01-29T02:38:09;48.25;;;25.13;;
27225;SDS011;14732;51.074;3.788;2023-01-29T02:40:53;47.78;;;24.95;;
27225;SDS011;14732;51.074;3.788;2023-01-29T02:43:51;47.78;;;25.60;;
27225;SDS011;14732;51.074;3.788;2023-01-29T02:46:34;51.90;;;26.80;;
27225;SDS011;14732;51.074;3.788;2023-01-29T02:49:26;55.38;;;27.77;;
27225;SDS011;14732;51.074;3.788;2023-01-29T02:54:51;53.17;;;27.23;;
27225;SDS011;14732;51.074;3.788;2023-01-29T02:57:27;48.97;;;25.73;;
27225;SDS011;14732;51.074;3.788;2023-01-29T02:59:58;50.65;;;25.80;;
27225;SDS011;14732;51.074;3.788;2023-01-29T03:02:41;49.38;;;25.63;;
27225;SDS011;14732;51.074;3.788;2023-01-29T03:05:10;45.92;;;24.15;;
27225;SDS011;14732;51.074;3.788;2023-01-29T03:07:42;48.42;;;24.42;;
27225;SDS011;14732;51.074;3.788;2023-01-29T03:10:16;47.15;;;25.77;;
27225;SDS011;14732;51.074;3.788;2023-01-29T03:12:54;53.38;;;24.83;;
27225;SDS011;14732;51.074;3.788;2023-01-29T03:15:27;50.72;;;26.15;;
27225;SDS011;14732;51.074;3.788;2023-01-29T03:18:07;42.70;;;23.48;;
27225;SDS011;14732;51.074;3.788;2023-01-29T03:20:39;48.72;;;24.65;;
27225;SDS011;14732;51.074;3.788;2023-01-29T03:23:19;49.08;;;24.77;;
27225;SDS011;14732;51.074;3.788;2023-01-29T03:25:51;48.47;;;24.75;;
27225;SDS011;14732;51.074;3.788;2023-01-29T03:28:39;49.47;;;24.57;;
27225;SDS011;14732;51.074;3.788;2023-01-29T03:31:26;51.15;;;25.27;;
27225;SDS011;14732;51.074;3.788;2023-01-29T03:34:12;49.63;;;26.85;;
27225;SDS011;14732;51.074;3.788;2023-01-29T03:36:52;50.55;;;25.05;;
27225;SDS011;14732;51.074;3.788;2023-01-29T03:39:23;50.47;;;25.30;;
27225;SDS011;14732;51.074;3.788;2023-01-29T03:42:03;50.10;;;25.77;;
27225;SDS011;14732;51.074;3.788;2023-01-29T03:52:34;47.58;;;23.17;;
27225;SDS011;14732;51.074;3.788;2023-01-29T04:00:13;52.85;;;25.73;;
27225;SDS011;14732;51.074;3.788;2023-01-29T04:05:30;48.28;;;24.90;;
27225;SDS011;14732;51.074;3.788;2023-01-29T04:08:04;46.00;;;24.75;;
27225;SDS011;14732;51.074;3.788;2023-01-29T04:10:32;53.17;;;24.88;;
27225;SDS011;14732;51.074;3.788;2023-01-29T04:13:04;54.15;;;25.92;;
27225;SDS011;14732;51.074;3.788;2023-01-29T04:15:35;46.30;;;24.80;;
27225;SDS011;14732;51.074;3.788;2023-01-29T04:18:12;48.85;;;24.73;;
27225;SDS011;14732;51.074;3.788;2023-01-29T04:20:38;53.20;;;25.70;;
27225;SDS011;14732;51.074;3.788;2023-01-29T04:23:04;47.15;;;24.27;;
27225;SDS011;14732;51.074;3.788;2023-01-29T04:25:34;50.83;;;24.58;;
27225;SDS011;14732;51.074;3.788;2023-01-29T04:28:16;51.10;;;24.90;;
27225;SDS011;14732;51.074;3.788;2023-01-29T04:30:55;45.03;;;23.25;;
27225;SDS011;14732;51.074;3.788;2023-01-29T04:33:30;47.25;;;24.10;;
27225;SDS011;14732;51.074;3.788;2023-01-29T04:36:20;48.45;;;24.00;;
27225;SDS011;14732;51.074;3.788;2023-01-29T04:41:35;51.30;;;24.98;;
27225;SDS011;14732;51.074;3.788;2023-01-29T04:49:38;50.45;;;23.77;;
27225;SDS011;14732;51.074;3.788;2023-01-29T04:57:18;42.25;;;23.00;;
27225;SDS011;14732;51.074;3.788;2023-01-29T05:02:52;46.00;;;23.15;;
27225;SDS011;14732;51.074;3.788;2023-01-29T05:05:19;45.15;;;23.25;;
27225;SDS011;14732;51.074;3.788;2023-01-29T05:07:45;45.67;;;23.45;;
27225;SDS011;14732;51.074;3.788;2023-01-29T05:10:12;43.08;;;23.55;;
27225;SDS011;14732;51.074;3.788;2023-01-29T05:12:41;48.93;;;23.23;;
27225;SDS011;14732;51.074;3.788;2023-01-29T05:15:11;44.67;;;23.27;;
27225;SDS011;14732;51.074;3.788;2023-01-29T05:17:43;38.25;;;21.48;;
27225;SDS011;14732;51.074;3.788;2023-01-29T05:20:09;45.50;;;24.30;;
27225;SDS011;14732;51.074;3.788;2023-01-29T05:22:36;42.58;;;22.92;;
27225;SDS011;14732;51.074;3.788;2023-01-29T05:27:51;41.45;;;21.55;;
27225;SDS011;14732;51.074;3.788;2023-01-29T05:30:38;44.35;;;23.08;;
27225;SDS011;14732;51.074;3.788;2023-01-29T05:33:08;42.65;;;23.15;;
27225;SDS011;14732;51.074;3.788;2023-01-29T05:35:39;43.35;;;21.73;;
27225;SDS011;14732;51.074;3.788;2023-01-29T05:38:04;41.45;;;22.35;;
27225;SDS011;14732;51.074;3.788;2023-01-29T05:40:30;41.83;;;22.52;;
27225;SDS011;14732;51.074;3.788;2023-01-29T05:42:56;47.30;;;22.25;;
27225;SDS011;14732;51.074;3.788;2023-01-29T05:45:22;43.45;;;23.52;;
27225;SDS011;14732;51.074;3.788;2023-01-29T05:47:48;44.78;;;21.88;;
27225;SDS011;14732;51.074;3.788;2023-01-29T05:50:13;41.45;;;22.65;;
27225;SDS011;14732;51.074;3.788;2023-01-29T05:52:40;44.35;;;22.33;;
27225;SDS011;14732;51.074;3.788;2023-01-29T05:55:07;41.22;;;21.77;;
27225;SDS011;14732;51.074;3.788;2023-01-29T05:57:33;42.78;;;22.20;;
27225;SDS011;14732;51.074;3.788;2023-01-29T05:59:59;45.05;;;22.88;;
27225;SDS011;14732;51.074;3.788;2023-01-29T06:02:25;44.35;;;22.05;;
27225;SDS011;14732;51.074;3.788;2023-01-29T06:04:53;43.50;;;22.65;;
27225;SDS011;14732;51.074;3.788;2023-01-29T06:07:19;45.03;;;23.98;;
27225;SDS011;14732;51.074;3.788;2023-01-29T06:09:44;43.00;;;23.05;;
27225;SDS011;14732;51.074;3.788;2023-01-29T06:12:10;44.17;;;23.27;;
27225;SDS011;14732;51.074;3.788;2023-01-29T06:14:36;42.95;;;23.10;;
27225;SDS011;14732;51.074;3.788;2023-01-29T06:17:02;41.75;;;21.77;;
27225;SDS011;14732;51.074;3.788;2023-01-29T06:19:28;47.63;;;24.77;;
27225;SDS011;14732;51.074;3.788;2023-01-29T06:21:54;48.47;;;24.25;;
27225;SDS011;14732;51.074;3.788;2023-01-29T06:24:20;45.60;;;23.48;;
27225;SDS011;14732;51.074;3.788;2023-01-29T06:26:45;45.47;;;23.05;;
27225;SDS011;14732;51.074;3.788;2023-01-29T06:29:11;43.25;;;23.27;;
27225;SDS011;14732;51.074;3.788;2023-01-29T06:31:37;46.28;;;23.33;;
27225;SDS011;14732;51.074;3.788;2023-01-29T06:34:03;45.60;;;23.15;;
27225;SDS011;14732;51.074;3.788;2023-01-29T06:36:28;42.80;;;24.20;;
27225;SDS011;14732;51.074;3.788;2023-01-29T06:38:54;45.05;;;23.45;;
27225;SDS011;14732;51.074;3.788;2023-01-29T06:41:20;41.78;;;21.88;;
27225;SDS011;14732;51.074;3.788;2023-01-29T06:43:49;43.42;;;22.98;;
27225;SDS011;14732;51.074;3.788;2023-01-29T06:46:15;42.83;;;23.35;;
27225;SDS011;14732;51.074;3.788;2023-01-29T06:48:40;42.58;;;22.83;;
27225;SDS011;14732;51.074;3.788;2023-01-29T06:51:07;45.58;;;22.58;;
27225;SDS011;14732;51.074;3.788;2023-01-29T06:53:35;38.22;;;21.00;;
27225;SDS011;14732;51.074;3.788;2023-01-29T06:56:02;42.33;;;22.25;;
27225;SDS011;14732;51.074;3.788;2023-01-29T06:58:28;44.33;;;21.67;;
27225;SDS011;14732;51.074;3.788;2023-01-29T07:01:01;40.80;;;21.52;;
27225;SDS011;14732;51.074;3.788;2023-01-29T07:03:28;43.45;;;21.58;;
27225;SDS011;14732;51.074;3.788;2023-01-29T07:05:53;40.90;;;22.40;;
27225;SDS011;14732;51.074;3.788;2023-01-29T07:08:19;40.47;;;21.67;;
27225;SDS011;14732;51.074;3.788;2023-01-29T07:10:46;40.92;;;22.13;;
27225;SDS011;14732;51.074;3.788;2023-01-29T07:13:12;42.45;;;21.60;;
27225;SDS011;14732;51.074;3.788;2023-01-29T07:15:38;36.60;;;20.20;;
27225;SDS011;14732;51.074;3.788;2023-01-29T07:18:04;39.85;;;20.95;;
27225;SDS011;14732;51.074;3.788;2023-01-29T07:20:36;36.63;;;20.35;;
27225;SDS011;14732;51.074;3.788;2023-01-29T07:23:03;38.00;;;20.02;;
27225;SDS011;14732;51.074;3.788;2023-01-29T07:25:28;38.03;;;19.15;;
27225;SDS011;14732;51.074;3.788;2023-01-29T07:27:54;34.58;;;19.63;;
27225;SDS011;14732;51.074;3.788;2023-01-29T07:30:20;36.47;;;19.45;;
27225;SDS011;14732;51.074;3.788;2023-01-29T07:32:46;36.53;;;18.70;;
27225;SDS011;14732;51.074;3.788;2023-01-29T07:35:12;33.58;;;18.95;;
27225;SDS011;14732;51.074;3.788;2023-01-29T07:37:38;36.83;;;20.27;;
27225;SDS011;14732;51.074;3.788;2023-01-29T07:40:03;35.55;;;18.95;;
27225;SDS011;14732;51.074;3.788;2023-01-29T07:42:35;36.53;;;19.27;;
27225;SDS011;14732;51.074;3.788;2023-01-29T07:45:02;34.25;;;19.13;;
27225;SDS011;14732;51.074;3.788;2023-01-29T07:47:28;35.38;;;18.75;;
27225;SDS011;14732;51.074;3.788;2023-01-29T07:49:53;36.55;;;19.13;;
27225;SDS011;14732;51.074;3.788;2023-01-29T07:52:19;35.38;;;20.23;;
27225;SDS011;14732;51.074;3.788;2023-01-29T07:54:45;35.78;;;19.90;;
27225;SDS011;14732;51.074;3.788;2023-01-29T07:57:10;38.28;;;19.23;;
27225;SDS011;14732;51.074;3.788;2023-01-29T07:59:36;37.03;;;19.55;;
27225;SDS011;14732;51.074;3.788;2023-01-29T08:02:01;38.47;;;19.33;;
27225;SDS011;14732;51.074;3.788;2023-01-29T08:04:28;37.35;;;19.88;;
27225;SDS011;14732;51.074;3.788;2023-01-29T08:06:53;35.47;;;19.63;;
27225;SDS011;14732;51.074;3.788;2023-01-29T08:09:19;38.72;;;20.10;;
27225;SDS011;14732;51.074;3.788;2023-01-29T08:11:45;36.80;;;19.13;;
27225;SDS011;14732;51.074;3.788;2023-01-29T08:14:10;35.17;;;19.23;;
27225;SDS011;14732;51.074;3.788;2023-01-29T08:16:36;39.90;;;19.42;;
27225;SDS011;14732;51.074;3.788;2023-01-29T08:19:02;35.47;;;18.42;;
27225;SDS011;14732;51.074;3.788;2023-01-29T08:21:27;37.22;;;18.60;;
27225;SDS011;14732;51.074;3.788;2023-01-29T08:23:53;37.00;;;19.52;;
27225;SDS011;14732;51.074;3.788;2023-01-29T08:39:32;34.58;;;18.33;;
27225;SDS011;14732;51.074;3.788;2023-01-29T08:41:57;36.50;;;18.83;;
27225;SDS011;14732;51.074;3.788;2023-01-29T08:44:23;36.42;;;18.98;;
27225;SDS011;14732;51.074;3.788;2023-01-29T08:46:48;37.60;;;17.90;;
27225;SDS011;14732;51.074;3.788;2023-01-29T08:49:14;30.63;;;17.42;;
27225;SDS011;14732;51.074;3.788;2023-01-29T08:51:40;31.33;;;17.58;;
27225;SDS011;14732;51.074;3.788;2023-01-29T08:54:05;36.25;;;18.13;;
27225;SDS011;14732;51.074;3.788;2023-01-29T08:56:31;33.80;;;18.25;;
27225;SDS011;14732;51.074;3.788;2023-01-29T08:58:57;31.70;;;17.60;;
27225;SDS011;14732;51.074;3.788;2023-01-29T09:01:22;32.10;;;17.30;;
27225;SDS011;14732;51.074;3.788;2023-01-29T09:03:48;32.85;;;17.67;;
27225;SDS011;14732;51.074;3.788;2023-01-29T09:06:14;33.00;;;17.40;;
27225;SDS011;14732;51.074;3.788;2023-01-29T09:08:40;31.23;;;17.13;;
27225;SDS011;14732;51.074;3.788;2023-01-29T09:11:06;33.30;;;16.50;;
27225;SDS011;14732;51.074;3.788;2023-01-29T09:13:32;31.33;;;17.60;;
27225;SDS011;14732;51.074;3.788;2023-01-29T09:15:58;30.30;;;16.92;;
27225;SDS011;14732;51.074;3.788;2023-01-29T09:18:25;29.35;;;16.80;;
27225;SDS011;14732;51.074;3.788;2023-01-29T09:20:51;28.77;;;16.60;;
27225;SDS011;14732;51.074;3.788;2023-01-29T09:23:17;28.48;;;16.75;;
27225;SDS011;14732;51.074;3.788;2023-01-29T09:25:43;29.70;;;16.08;;
27225;SDS011;14732;51.074;3.788;2023-01-29T09:28:09;26.70;;;16.08;;
27225;SDS011;14732;51.074;3.788;2023-01-29T09:30:35;31.23;;;16.40;;
27225;SDS011;14732;51.074;3.788;2023-01-29T09:33:05;27.98;;;16.20;;
27225;SDS011;14732;51.074;3.788;2023-01-29T09:35:31;30.42;;;16.45;;
27225;SDS011;14732;51.074;3.788;2023-01-29T09:37:58;29.55;;;16.75;;
27225;SDS011;14732;51.074;3.788;2023-01-29T09:40:34;29.48;;;16.15;;
27225;SDS011;14732;51.074;3.788;2023-01-29T09:43:05;29.70;;;16.20;;
27225;SDS011;14732;51.074;3.788;2023-01-29T09:45:59;30.20;;;16.33;;
27225;SDS011;14732;51.074;3.788;2023-01-29T09:48:30;29.60;;;15.90;;
27225;SDS011;14732;51.074;3.788;2023-01-29T09:50:59;31.02;;;16.80;;
27225;SDS011;14732;51.074;3.788;2023-01-29T09:56:03;30.10;;;16.63;;
27225;SDS011;14732;51.074;3.788;2023-01-29T09:58:34;29.35;;;16.38;;
27225;SDS011;14732;51.074;3.788;2023-01-29T10:01:12;29.70;;;17.00;;
27225;SDS011;14732;51.074;3.788;2023-01-29T10:07:45;30.10;;;17.40;;
27225;SDS011;14732;51.074;3.788;2023-01-29T10:10:05;35.22;;;19.08;;
27225;SDS011;14732;51.074;3.788;2023-01-29T10:23:49;29.27;;;16.58;;
27225;SDS011;14732;51.074;3.788;2023-01-29T10:26:22;38.65;;;18.15;;
27225;SDS011;14732;51.074;3.788;2023-01-29T10:28:51;29.10;;;16.58;;
27225;SDS011;14732;51.074;3.788;2023-01-29T10:31:25;33.00;;;17.95;;
27225;SDS011;14732;51.074;3.788;2023-01-29T10:39:09;38.20;;;18.30;;
27225;SDS011;14732;51.074;3.788;2023-01-29T10:44:46;30.65;;;17.25;;
27225;SDS011;14732;51.074;3.788;2023-01-29T10:47:38;27.50;;;16.77;;
27225;SDS011;14732;51.074;3.788;2023-01-29T10:55:42;29.83;;;16.38;;
27225;SDS011;14732;51.074;3.788;2023-01-29T11:01:11;26.83;;;15.40;;
27225;SDS011;14732;51.074;3.788;2023-01-29T11:03:37;34.28;;;17.10;;
27225;SDS011;14732;51.074;3.788;2023-01-29T11:06:08;31.85;;;18.25;;
27225;SDS011;14732;51.074;3.788;2023-01-29T11:12:12;27.35;;;15.73;;
27225;SDS011;14732;51.074;3.788;2023-01-29T11:17:21;27.65;;;17.13;;
27225;SDS011;14732;51.074;3.788;2023-01-29T11:19:49;29.50;;;15.90;;
27225;SDS011;14732;51.074;3.788;2023-01-29T11:22:19;26.73;;;15.98;;
27225;SDS011;14732;51.074;3.788;2023-01-29T11:25:06;29.17;;;15.98;;
27225;SDS011;14732;51.074;3.788;2023-01-29T11:27:32;31.70;;;16.35;;
27225;SDS011;14732;51.074;3.788;2023-01-29T11:29:59;26.38;;;16.23;;
27225;SDS011;14732;51.074;3.788;2023-01-29T11:32:27;27.75;;;15.70;;
27225;SDS011;14732;51.074;3.788;2023-01-29T11:37:32;26.90;;;16.23;;
27225;SDS011;14732;51.074;3.788;2023-01-29T11:40:44;26.63;;;15.55;;
27225;SDS011;14732;51.074;3.788;2023-01-29T11:43:10;25.47;;;15.03;;
27225;SDS011;14732;51.074;3.788;2023-01-29T11:45:42;24.45;;;15.05;;
27225;SDS011;14732;51.074;3.788;2023-01-29T11:48:42;27.15;;;15.10;;
27225;SDS011;14732;51.074;3.788;2023-01-29T11:51:19;24.42;;;14.00;;
27225;SDS011;14732;51.074;3.788;2023-01-29T11:53:54;21.63;;;12.45;;
27225;SDS011;14732;51.074;3.788;2023-01-29T11:56:28;21.73;;;12.95;;
27225;SDS011;14732;51.074;3.788;2023-01-29T11:58:59;21.40;;;13.30;;
27225;SDS011;14732;51.074;3.788;2023-01-29T12:01:37;21.08;;;13.18;;
27225;SDS011;14732;51.074;3.788;2023-01-29T12:04:14;20.02;;;12.48;;
27225;SDS011;14732;51.074;3.788;2023-01-29T12:06:46;23.25;;;13.00;;
27225;SDS011;14732;51.074;3.788;2023-01-29T12:09:17;23.27;;;13.27;;
27225;SDS011;14732;51.074;3.788;2023-01-29T12:11:46;26.13;;;13.88;;
27225;SDS011;14732;51.074;3.788;2023-01-29T12:14:31;23.75;;;13.68;;
27225;SDS011;14732;51.074;3.788;2023-01-29T12:17:10;26.92;;;14.32;;
27225;SDS011;14732;51.074;3.788;2023-01-29T12:19:46;25.25;;;14.10;;
27225;SDS011;14732;51.074;3.788;2023-01-29T12:35:53;21.67;;;12.07;;
27225;SDS011;14732;51.074;3.788;2023-01-29T12:38:26;24.70;;;12.77;;
27225;SDS011;14732;51.074;3.788;2023-01-29T12:40:54;20.58;;;12.70;;
27225;SDS011;14732;51.074;3.788;2023-01-29T12:43:31;24.40;;;12.93;;
27225;SDS011;14732;51.074;3.788;2023-01-29T12:48:42;23.38;;;13.15;;
27225;SDS011;14732;51.074;3.788;2023-01-29T12:51:11;23.05;;;13.35;;
27225;SDS011;14732;51.074;3.788;2023-01-29T12:53:47;23.95;;;14.50;;
27225;SDS011;14732;51.074;3.788;2023-01-29T12:59:46;26.95;;;14.02;;
27225;SDS011;14732;51.074;3.788;2023-01-29T13:01:55;25.48;;;15.10;;
27225;SDS011;14732;51.074;3.788;2023-01-29T13:07:13;22.50;;;13.43;;
27225;SDS011;14732;51.074;3.788;2023-01-29T13:09:44;27.65;;;14.13;;
27225;SDS011;14732;51.074;3.788;2023-01-29T13:12:15;26.63;;;14.00;;
27225;SDS011;14732;51.074;3.788;2023-01-29T13:14:56;30.50;;;15.52;;
27225;SDS011;14732;51.074;3.788;2023-01-29T13:17:35;25.25;;;15.50;;
27225;SDS011;14732;51.074;3.788;2023-01-29T13:25:42;24.33;;;14.48;;
27225;SDS011;14732;51.074;3.788;2023-01-29T13:28:15;24.13;;;13.95;;
27225;SDS011;14732;51.074;3.788;2023-01-29T13:30:42;24.85;;;15.13;;
27225;SDS011;14732;51.074;3.788;2023-01-29T13:33:14;28.40;;;16.02;;
27225;SDS011;14732;51.074;3.788;2023-01-29T13:35:47;25.27;;;15.07;;
27225;SDS011;14732;51.074;3.788;2023-01-29T13:38:23;30.35;;;16.05;;
27225;SDS011;14732;51.074;3.788;2023-01-29T13:40:52;27.50;;;15.43;;
27225;SDS011;14732;51.074;3.788;2023-01-29T13:43:23;28.60;;;16.60;;
27225;SDS011;14732;51.074;3.788;2023-01-29T13:45:50;29.92;;;16.98;;
27225;SDS011;14732;51.074;3.788;2023-01-29T13:50:48;33.30;;;16.75;;
27225;SDS011;14732;51.074;3.788;2023-01-29T13:53:23;31.95;;;17.60;;
27225;SDS011;14732;51.074;3.788;2023-01-29T13:55:51;31.45;;;16.88;;
27225;SDS011;14732;51.074;3.788;2023-01-29T13:58:51;30.13;;;17.05;;
27225;SDS011;14732;51.074;3.788;2023-01-29T14:01:03;35.92;;;16.70;;
27225;SDS011;14732;51.074;3.788;2023-01-29T14:06:00;26.63;;;16.33;;
27225;SDS011;14732;51.074;3.788;2023-01-29T14:08:44;35.13;;;17.05;;
27225;SDS011;14732;51.074;3.788;2023-01-29T14:13:40;30.75;;;16.73;;
27225;SDS011;14732;51.074;3.788;2023-01-29T14:18:36;26.35;;;15.88;;
27225;SDS011;14732;51.074;3.788;2023-01-29T14:23:42;28.17;;;15.82;;
27225;SDS011;14732;51.074;3.788;2023-01-29T14:26:29;28.08;;;16.60;;
27225;SDS011;14732;51.074;3.788;2023-01-29T14:39:58;27.90;;;16.83;;
27225;SDS011;14732;51.074;3.788;2023-01-29T14:42:35;28.80;;;15.82;;
27225;SDS011;14732;51.074;3.788;2023-01-29T14:45:07;30.15;;;15.68;;
27225;SDS011;14732;51.074;3.788;2023-01-29T14:58:24;31.35;;;18.92;;
27225;SDS011;14732;51.074;3.788;2023-01-29T15:01:32;31.45;;;17.55;;
27225;SDS011;14732;51.074;3.788;2023-01-29T15:04:05;28.85;;;16.83;;
27225;SDS011;14732;51.074;3.788;2023-01-29T15:06:37;31.48;;;17.75;;
27225;SDS011;14732;51.074;3.788;2023-01-29T15:15:36;28.70;;;16.45;;
27225;SDS011;14732;51.074;3.788;2023-01-29T15:20:43;30.48;;;16.90;;
27225;SDS011;14732;51.074;3.788;2023-01-29T15:26:12;32.42;;;17.38;;
27225;SDS011;14732;51.074;3.788;2023-01-29T15:28:43;28.95;;;17.33;;
27225;SDS011;14732;51.074;3.788;2023-01-29T15:31:13;29.95;;;17.27;;
27225;SDS011;14732;51.074;3.788;2023-01-29T15:33:43;27.67;;;16.77;;
27225;SDS011;14732;51.074;3.788;2023-01-29T15:36:21;28.90;;;17.27;;
27225;SDS011;14732;51.074;3.788;2023-01-29T15:42:13;30.88;;;16.98;;
27225;SDS011;14732;51.074;3.788;2023-01-29T15:44:47;26.65;;;16.15;;
27225;SDS011;14732;51.074;3.788;2023-01-29T15:47:13;26.95;;;16.13;;
27225;SDS011;14732;51.074;3.788;2023-01-29T15:49:39;27.63;;;16.30;;
27225;SDS011;14732;51.074;3.788;2023-01-29T15:52:16;25.85;;;15.80;;
27225;SDS011;14732;51.074;3.788;2023-01-29T15:54:46;31.85;;;16.65;;
27225;SDS011;14732;51.074;3.788;2023-01-29T15:57:19;29.50;;;15.52;;
27225;SDS011;14732;51.074;3.788;2023-01-29T15:59:51;28.83;;;17.38;;
27225;SDS011;14732;51.074;3.788;2023-01-29T16:04:56;27.98;;;17.05;;
27225;SDS011;14732;51.074;3.788;2023-01-29T16:07:23;29.73;;;16.90;;
27225;SDS011;14732;51.074;3.788;2023-01-29T16:09:49;27.77;;;16.80;;
27225;SDS011;14732;51.074;3.788;2023-01-29T16:12:16;27.05;;;15.77;;
27225;SDS011;14732;51.074;3.788;2023-01-29T16:14:42;30.13;;;17.55;;
27225;SDS011;14732;51.074;3.788;2023-01-29T16:17:09;28.42;;;16.70;;
27225;SDS011;14732;51.074;3.788;2023-01-29T16:19:54;28.63;;;16.60;;
27225;SDS011;14732;51.074;3.788;2023-01-29T16:22:24;29.02;;;16.73;;
27225;SDS011;14732;51.074;3.788;2023-01-29T16:24:54;31.75;;;17.13;;
27225;SDS011;14732;51.074;3.788;2023-01-29T16:27:20;27.92;;;16.23;;
27225;SDS011;14732;51.074;3.788;2023-01-29T16:29:49;30.55;;;16.48;;
27225;SDS011;14732;51.074;3.788;2023-01-29T16:32:15;28.67;;;17.50;;
27225;SDS011;14732;51.074;3.788;2023-01-29T16:34:43;27.75;;;16.00;;
27225;SDS011;14732;51.074;3.788;2023-01-29T16:37:17;29.98;;;17.35;;
27225;SDS011;14732;51.074;3.788;2023-01-29T16:39:54;30.27;;;16.35;;
27225;SDS011;14732;51.074;3.788;2023-01-29T16:42:21;32.85;;;18.20;;
27225;SDS011;14732;51.074;3.788;2023-01-29T16:45:29;30.85;;;17.00;;
27225;SDS011;14732;51.074;3.788;2023-01-29T16:47:58;31.85;;;17.02;;
27225;SDS011;14732;51.074;3.788;2023-01-29T16:50:32;33.75;;;18.23;;
27225;SDS011;14732;51.074;3.788;2023-01-29T16:53:10;33.58;;;17.27;;
27225;SDS011;14732;51.074;3.788;2023-01-29T16:55:46;30.50;;;16.65;;
27225;SDS011;14732;51.074;3.788;2023-01-29T16:58:26;31.33;;;17.40;;
27225;SDS011;14732;51.074;3.788;2023-01-29T17:00:56;31.35;;;17.75;;
27225;SDS011;14732;51.074;3.788;2023-01-29T17:03:28;30.73;;;17.00;;
27225;SDS011;14732;51.074;3.788;2023-01-29T17:08:28;30.73;;;16.85;;
27225;SDS011;14732;51.074;3.788;2023-01-29T17:10:57;28.35;;;16.80;;
27225;SDS011;14732;51.074;3.788;2023-01-29T17:13:37;31.73;;;17.52;;
27225;SDS011;14732;51.074;3.788;2023-01-29T17:16:13;32.13;;;17.48;;
27225;SDS011;14732;51.074;3.788;2023-01-29T17:18:47;31.48;;;16.50;;
27225;SDS011;14732;51.074;3.788;2023-01-29T17:21:13;31.50;;;17.50;;
27225;SDS011;14732;51.074;3.788;2023-01-29T17:23:39;30.52;;;16.73;;
27225;SDS011;14732;51.074;3.788;2023-01-29T17:26:04;34.28;;;17.70;;
27225;SDS011;14732;51.074;3.788;2023-01-29T17:28:33;34.15;;;17.95;;
27225;SDS011;14732;51.074;3.788;2023-01-29T17:30:58;31.27;;;18.08;;
27225;SDS011;14732;51.074;3.788;2023-01-29T17:33:24;35.00;;;18.70;;
27225;SDS011;14732;51.074;3.788;2023-01-29T17:35:50;34.63;;;17.35;;
27225;SDS011;14732;51.074;3.788;2023-01-29T17:38:17;31.85;;;18.55;;
27225;SDS011;14732;51.074;3.788;2023-01-29T17:40:45;34.50;;;18.95;;
27225;SDS011;14732;51.074;3.788;2023-01-29T17:43:19;31.35;;;18.08;;
27225;SDS011;14732;51.074;3.788;2023-01-29T17:45:45;32.30;;;18.38;;
27225;SDS011;14732;51.074;3.788;2023-01-29T17:50:38;31.52;;;18.05;;